createdAt,value
2024-05-09T00:00:52.596Z,9.58
2024-05-09T00:04:56.646Z,9.48
2024-05-09T00:08:34.589Z,9.41
2024-05-09T00:12:11.068Z,9.30
2024-05-09T00:15:48.075Z,9.22
2024-05-09T00:19:28.227Z,9.12
2024-05-09T00:23:06.515Z,9.05
2024-05-09T00:26:39.350Z,8.95
2024-05-09T00:30:31.029Z,8.91
2024-05-09T00:34:01.171Z,8.88
2024-05-09T00:37:39.091Z,8.80
2024-05-09T00:41:17.130Z,8.73
2024-05-09T00:44:54.148Z,8.70
2024-05-09T00:48:32.938Z,8.69
2024-05-09T00:52:10.334Z,8.63
2024-05-09T00:55:46.425Z,8.58
2024-05-09T00:59:24.639Z,8.53
2024-05-09T01:03:03.039Z,8.52
2024-05-09T01:06:40.498Z,8.57
2024-05-09T01:10:21.279Z,8.62
2024-05-09T01:13:54.515Z,8.60
2024-05-09T01:17:32.689Z,8.57
2024-05-09T01:21:11.395Z,8.56
2024-05-09T01:24:48.635Z,8.51
2024-05-09T01:28:23.296Z,8.49
2024-05-09T01:32:07.311Z,8.45
2024-05-09T01:35:45.056Z,8.42
2024-05-09T01:39:21.146Z,8.38
2024-05-09T01:43:00.389Z,8.34
2024-05-09T01:46:38.088Z,8.30
2024-05-09T01:50:16.657Z,8.25
2024-05-09T01:53:49.910Z,8.19
2024-05-09T01:57:34.420Z,8.11
2024-05-09T02:01:10.784Z,8.03
2024-05-09T02:04:47.820Z,7.95
2024-05-09T02:08:32.117Z,7.85
2024-05-09T02:12:09.782Z,7.77
2024-05-09T02:15:44.449Z,7.68
2024-05-09T02:19:28.446Z,7.59
2024-05-09T02:23:06.218Z,7.50
2024-05-09T02:26:41.276Z,7.44
2024-05-09T02:30:30.013Z,7.36
2024-05-09T02:33:59.260Z,7.30
2024-05-09T02:37:33.670Z,7.23
2024-05-09T02:41:17.578Z,7.17
2024-05-09T02:44:51.998Z,7.12
2024-05-09T02:48:32.464Z,7.09
2024-05-09T02:52:19.614Z,7.07
2024-05-09T02:55:50.671Z,7.02
2024-05-09T02:59:35.187Z,6.97
2024-05-09T03:03:14.377Z,6.94
2024-05-09T03:06:46.614Z,6.91
2024-05-09T03:10:35.950Z,6.86
2024-05-09T03:14:05.318Z,6.83
2024-05-09T03:17:49.364Z,6.80
2024-05-09T03:21:26.845Z,6.76
2024-05-09T03:25:04.876Z,6.74
2024-05-09T03:28:44.916Z,6.73
2024-05-09T03:32:18.598Z,6.74
2024-05-09T03:35:56.623Z,6.80
2024-05-09T03:39:35.683Z,6.93
2024-05-09T03:43:12.854Z,7.11
2024-05-09T03:46:51.061Z,7.34
2024-05-09T03:50:33.661Z,7.62
2024-05-09T03:54:07.728Z,7.97
2024-05-09T03:57:42.562Z,8.38
2024-05-09T04:01:20.416Z,8.85
2024-05-09T04:04:57.891Z,9.33
2024-05-09T04:08:37.327Z,9.76
2024-05-09T04:12:15.627Z,10.35
2024-05-09T04:15:51.191Z,10.86
2024-05-09T04:19:30.588Z,11.36
2024-05-09T04:23:12.010Z,11.82
2024-05-09T04:26:45.726Z,12.17
2024-05-09T04:30:33.672Z,12.47
2024-05-09T04:33:59.747Z,12.76
2024-05-09T04:37:39.463Z,12.96
2024-05-09T04:41:17.251Z,13.39
2024-05-09T04:44:56.427Z,13.86
2024-05-09T04:48:30.550Z,14.18
2024-05-09T05:16:24.748Z,17.26
2024-05-09T05:19:17.561Z,17.83
2024-05-09T05:22:53.645Z,17.94
2024-05-09T05:26:34.033Z,18.18
2024-05-09T05:30:14.767Z,18.34
2024-05-09T05:33:48.757Z,18.31
2024-05-09T05:37:24.663Z,18.45
2024-05-09T05:41:02.345Z,18.58
2024-05-09T05:44:41.367Z,18.89
2024-05-09T05:48:18.402Z,19.28
2024-05-09T05:51:55.341Z,19.55
2024-05-09T05:55:34.516Z,19.80
2024-05-09T05:59:15.060Z,20.08
2024-05-09T06:02:48.556Z,20.23
2024-05-09T06:06:26.156Z,20.36
2024-05-09T06:10:07.256Z,20.48
2024-05-09T06:13:43.833Z,20.72
2024-05-09T06:17:19.418Z,20.85
2024-05-09T06:20:57.312Z,20.80
2024-05-09T06:24:42.845Z,20.99
2024-05-09T06:28:11.087Z,21.21
2024-05-09T06:31:54.404Z,21.47
2024-05-09T06:35:31.278Z,21.59
2024-05-09T06:39:10.098Z,21.65
2024-05-09T06:42:47.927Z,21.75
2024-05-09T06:46:25.221Z,21.77
2024-05-09T06:50:03.529Z,21.86
2024-05-09T06:53:40.762Z,21.95
2024-05-09T06:57:19.377Z,21.89
2024-05-09T07:00:55.006Z,21.65
2024-05-09T07:04:32.958Z,21.70
2024-05-09T07:08:12.116Z,21.28
2024-05-09T07:11:50.321Z,21.45
2024-05-09T07:15:27.407Z,21.50
2024-05-09T07:19:03.744Z,21.37
2024-05-09T07:22:41.837Z,21.14
2024-05-09T07:26:20.976Z,21.20
2024-05-09T07:29:58.354Z,21.15
2024-05-09T07:33:32.955Z,21.04
2024-05-09T07:37:15.506Z,20.69
2024-05-09T07:40:54.898Z,20.58
2024-05-09T07:44:31.647Z,20.59
2024-05-09T07:49:44.502Z,20.56
2024-05-09T07:53:21.717Z,20.45
2024-05-09T07:55:32.601Z,20.30
2024-05-09T07:59:05.911Z,20.22
2024-05-09T08:02:43.725Z,19.42
2024-05-09T08:06:37.546Z,18.86
2024-05-09T08:09:57.005Z,18.97
2024-05-09T08:13:44.673Z,18.69
2024-05-09T08:17:16.504Z,19.01
2024-05-09T08:20:48.428Z,19.26
2024-05-09T08:24:30.812Z,19.40
2024-05-09T08:28:06.964Z,19.22
2024-05-09T08:31:59.470Z,18.91
2024-05-09T08:35:29.088Z,18.97
2024-05-09T08:39:04.667Z,19.28
2024-05-09T08:42:52.572Z,19.51
2024-05-09T08:46:26.688Z,19.62
2024-05-09T08:50:03.147Z,19.81
2024-05-09T08:53:47.937Z,19.62
2024-05-09T08:57:25.767Z,19.27
2024-05-09T09:01:00.194Z,18.92
2024-05-09T09:04:37.920Z,19.02
2024-05-09T09:08:14.630Z,19.15
2024-05-09T09:22:15.712Z,20.05
2024-05-09T09:25:12.852Z,20.04
2024-05-09T09:28:44.907Z,19.78
2024-05-09T09:32:29.048Z,19.96
2024-05-09T09:35:54.535Z,19.89
2024-05-09T09:39:49.037Z,19.91
2024-05-09T09:43:19.448Z,20.16
2024-05-09T09:47:04.912Z,20.07
2024-05-09T09:50:41.200Z,20.19
2024-05-09T09:54:21.595Z,20.10
2024-05-09T09:57:46.490Z,19.74
2024-05-09T10:01:21.233Z,19.87
2024-05-09T10:05:12.546Z,19.96
2024-05-09T10:08:54.075Z,20.23
2024-05-09T10:12:22.948Z,20.19
2024-05-09T10:15:58.329Z,19.55
2024-05-09T10:19:48.867Z,19.38
2024-05-09T10:23:27.349Z,19.02
2024-05-09T10:27:04.008Z,19.15
2024-05-09T10:30:35.921Z,19.53
2024-05-09T10:34:17.495Z,19.41
2024-05-09T10:37:53.330Z,19.10
2024-05-09T10:41:23.825Z,19.47
2024-05-09T10:45:08.904Z,19.84
2024-05-09T10:48:41.333Z,20.19
2024-05-09T11:02:50.529Z,20.54
2024-05-09T11:05:42.754Z,20.41
2024-05-09T11:09:29.449Z,19.85
2024-05-09T11:12:59.316Z,20.01
2024-05-09T11:16:43.323Z,20.35
2024-05-09T11:20:37.327Z,20.73
2024-05-09T11:24:00.610Z,20.93
2024-05-09T11:27:27.928Z,20.95
2024-05-09T11:31:12.095Z,21.10
2024-05-09T11:34:49.217Z,20.91
2024-05-09T11:38:27.646Z,20.39
2024-05-09T11:42:00.696Z,20.11
2024-05-09T11:45:40.517Z,19.66
2024-05-09T11:49:27.154Z,19.60
2024-05-09T11:53:00.534Z,19.61
2024-05-09T11:56:32.414Z,19.92
2024-05-09T12:00:14.801Z,20.01
2024-05-09T12:03:45.605Z,20.40
2024-05-09T12:07:27.694Z,20.88
2024-05-09T12:11:05.288Z,21.15
2024-05-09T12:14:36.125Z,21.14
2024-05-09T12:18:28.177Z,21.37
2024-05-09T12:22:08.530Z,21.25
2024-05-09T12:25:35.768Z,21.08
2024-05-09T12:29:09.738Z,21.38
2024-05-09T12:33:11.852Z,21.85
2024-05-09T12:36:28.360Z,22.11
2024-05-09T12:40:18.568Z,22.41
2024-05-09T12:43:51.545Z,22.44
2024-05-09T12:47:26.215Z,22.22
2024-05-09T12:51:05.728Z,21.95
2024-05-09T12:54:45.506Z,21.88
2024-05-09T12:58:21.713Z,21.29
2024-05-09T13:01:59.561Z,20.88
2024-05-09T13:05:47.343Z,21.14
2024-05-09T13:09:13.896Z,21.40
2024-05-09T13:12:52.291Z,21.04
2024-05-09T13:16:30.815Z,20.72
2024-05-09T13:20:09.281Z,20.82
2024-05-09T13:34:10.819Z,21.72
2024-05-09T13:37:01.642Z,21.86
2024-05-09T13:40:39.903Z,21.91
2024-05-09T13:44:18.995Z,21.94
2024-05-09T13:47:56.753Z,21.95
2024-05-09T13:51:32.743Z,21.94
2024-05-09T13:55:12.063Z,21.68
2024-05-09T13:58:46.548Z,21.50
2024-05-09T14:02:32.275Z,21.43
2024-05-09T14:06:11.299Z,21.21
2024-05-09T14:09:46.982Z,21.49
2024-05-09T14:13:21.966Z,21.87
2024-05-09T14:16:59.894Z,21.87
2024-05-09T14:20:39.262Z,22.03
2024-05-09T14:24:15.151Z,22.05
2024-05-09T14:27:52.621Z,21.87
2024-05-09T14:31:30.564Z,21.69
2024-05-09T14:35:08.246Z,21.29
2024-05-09T14:38:46.015Z,20.83
2024-05-09T14:42:42.676Z,20.56
2024-05-09T14:46:01.726Z,20.16
2024-05-09T14:49:42.035Z,20.04
2024-05-09T14:53:17.223Z,20.14
2024-05-09T14:56:54.824Z,19.97
2024-05-09T15:00:35.947Z,19.90
2024-05-09T15:04:10.081Z,20.09
2024-05-09T15:07:49.400Z,20.21
2024-05-09T15:11:25.423Z,20.10
2024-05-09T15:15:03.999Z,20.30
2024-05-09T15:18:44.053Z,20.41
2024-05-09T15:22:20.339Z,20.16
2024-05-09T15:25:55.393Z,19.93
2024-05-09T15:29:32.196Z,20.09
2024-05-09T15:33:16.603Z,20.18
2024-05-09T15:36:52.375Z,20.28
2024-05-09T15:40:36.110Z,20.09
2024-05-09T15:44:20.438Z,19.73
2024-05-09T16:39:58.176Z,21.75
2024-05-09T16:42:48.449Z,21.85
2024-05-09T16:46:24.747Z,21.69
2024-05-09T16:50:10.694Z,21.57
2024-05-09T16:53:44.830Z,21.57
2024-05-09T16:57:20.579Z,21.53
2024-05-09T17:01:04.781Z,21.35
2024-05-09T17:04:46.532Z,21.17
2024-05-09T17:08:20.419Z,20.69
2024-05-09T17:12:20.778Z,20.31
2024-05-09T17:15:43.191Z,20.03
2024-05-09T17:19:20.039Z,19.84
2024-05-09T17:23:14.659Z,19.59
2024-05-09T18:32:18.146Z,17.69
2024-05-09T18:35:10.899Z,17.29
2024-05-09T18:38:52.034Z,16.98
2024-05-09T18:42:24.526Z,16.70
2024-05-09T18:46:03.945Z,16.45
2024-05-09T18:49:40.205Z,16.21
2024-05-09T18:53:19.453Z,16.02
2024-05-09T18:56:55.483Z,15.80
2024-05-09T19:00:37.081Z,15.62
2024-05-09T19:04:11.263Z,15.47
2024-05-09T19:07:50.431Z,15.35
2024-05-09T19:11:26.381Z,15.22
2024-05-09T19:15:04.447Z,15.10
2024-05-09T19:18:42.129Z,14.97
2024-05-09T19:22:22.087Z,14.82
2024-05-09T19:25:59.159Z,14.68
2024-05-09T19:29:35.466Z,14.52
2024-05-09T19:33:13.851Z,14.35
2024-05-09T19:37:01.274Z,14.21
2024-05-09T19:40:36.831Z,14.08
2024-05-09T19:44:11.852Z,13.96
2024-05-09T19:47:48.409Z,13.85
2024-05-09T19:51:33.122Z,13.77
2024-05-09T19:55:06.668Z,13.68
2024-05-09T19:58:49.283Z,13.59
2024-05-09T20:02:26.669Z,13.53
2024-05-09T20:06:06.230Z,13.47
2024-05-09T20:09:43.885Z,13.45
2024-05-09T20:13:18.383Z,13.38
2024-05-09T20:17:01.213Z,13.31
2024-05-09T20:20:40.341Z,13.26
2024-05-09T20:24:26.863Z,13.18
2024-05-09T20:28:01.493Z,13.12
2024-05-09T20:31:45.178Z,13.08
2024-05-09T20:35:19.619Z,13.03
2024-05-09T20:39:03.274Z,12.98
2024-05-09T20:42:43.952Z,12.90
2024-05-09T20:46:17.619Z,12.83
2024-05-09T20:49:55.211Z,12.76
2024-05-09T20:53:34.374Z,12.68
2024-05-09T20:57:12.103Z,12.63
2024-05-09T21:00:46.658Z,12.52
2024-05-09T21:04:31.855Z,12.45
2024-05-09T21:08:09.030Z,12.37
2024-05-09T21:11:47.370Z,12.28
2024-05-09T21:15:20.636Z,12.21
2024-05-09T21:19:09.090Z,12.16
2024-05-09T21:22:38.615Z,12.10
2024-05-09T21:26:23.690Z,12.04
2024-05-09T21:29:59.932Z,11.96
2024-05-09T21:33:38.011Z,11.89
2024-05-09T21:37:12.329Z,11.80
2024-05-09T21:40:56.915Z,11.71
2024-05-09T21:44:34.008Z,11.62
2024-05-09T21:48:09.013Z,11.54
2024-05-09T21:51:52.937Z,11.45
2024-05-09T21:55:30.524Z,11.36
2024-05-09T21:59:04.573Z,11.25
2024-05-09T22:02:47.017Z,11.18
2024-05-09T22:06:22.434Z,11.10
2024-05-09T22:10:06.401Z,11.02
2024-05-09T22:13:40.394Z,10.97
2024-05-09T22:17:24.362Z,10.90
2024-05-09T22:21:01.892Z,10.85
2024-05-09T22:24:38.194Z,10.81
2024-05-09T22:28:16.131Z,10.75
2024-05-09T22:31:55.507Z,10.69
2024-05-09T22:35:37.857Z,10.65
2024-05-09T22:39:19.115Z,10.60
2024-05-09T22:42:45.075Z,10.54
2024-05-09T22:46:25.662Z,10.51
2024-05-09T22:50:12.851Z,10.48
2024-05-09T22:53:47.459Z,10.45
2024-05-09T22:57:25.054Z,10.43
2024-05-09T23:00:59.432Z,10.40
2024-05-09T23:04:43.250Z,10.39
2024-05-09T23:08:21.630Z,10.38
2024-05-09T23:11:57.311Z,10.37
2024-05-09T23:15:33.036Z,10.36
2024-05-09T23:19:17.138Z,10.34
2024-05-09T23:22:54.615Z,10.29
2024-05-09T23:26:28.689Z,10.23
2024-05-09T23:30:12.600Z,10.18
2024-05-09T23:33:50.549Z,10.13
2024-05-09T23:37:28.466Z,10.11
2024-05-09T23:41:02.235Z,10.08
2024-05-09T23:44:46.273Z,10.06
2024-05-09T23:48:22.561Z,10.02
2024-05-09T23:52:01.363Z,9.99
2024-05-09T23:55:39.775Z,9.96
2024-05-09T23:59:17.122Z,9.93
